Tiempo atmosférico en la estación meteorológica de Ponferrada, León (534 m.)



Fecha
DESCASC
Temp. máxima en grados centígrados (hora)
DESCASC
Temp. mínima en grados centígrados (hora)
DESCASC
Temp. media en grados centígrados
DESCASC
Racha de viento máxima en m/sg (hora)
DESCASC
Velocidad máxima media en intervalos de 10 minutos(hora)
DESCASC
Precipitaciones diarias en mm
DESCASC
Precipitaciones de 00:00 a 06:00 en mm
DESCASC
Precipitaciones de 06:00 a 12:00 en mm
DESCASC
Precipitaciones de 12:00 a 18:00 en mm
DESCASC
Precipitaciones de 18:00 a 24:00 en mm
DESCASC
20-10-2019 14.7 (15:30) 7.5 (23:59) 11.1 9.17 (15:50) 4.72 (16:00) 0.8 0.6 0 0.2 0
19-10-2019 13.6 (00:00) 9.4 (23:59) 11.5 3.89 (23:59) 2.22 (14:50) -- 0.4 13.8 -- 0
18-10-2019 15.8 (16:30) 11 (07:30) 13.4 5 (05:00) 2.22 (00:10) -- 0 0 -- 0
17-10-2019 20.9 (18:00) 12.6 (00:00) 16.8 -- (--) -- (--) -- -- -- 0 1.4
16-10-2019 15.7 (14:00) 11.3 (00:00) 13.5 6.67 (15:10) 3.61 (15:20) 9.8 0 0.6 0.6 8.6
15-10-2019 14.1 (14:30) 7.6 (00:00) 10.9 6.39 (16:40) 2.78 (16:40) 0 0 0 0 0
14-10-2019 19.4 (03:10) 8.5 (00:00) 13.9 11.11 (15:30) 4.72 (04:10) -- 0.4 4.4 -- 1.6
13-10-2019 18.6 (00:00) 12.2 (00:00) 15.4 5.28 (08:40) 2.5 (10:10) 2.2 0 1.6 0.6 0
12-10-2019 27.9 (16:00) 10.6 (00:00) 19.3 9.44 (17:40) 4.17 (17:30) 0 0 0 0 0
11-10-2019 28.6 (17:10) 6.9 (00:00) 17.8 7.78 (17:30) 3.89 (17:50) 0 0 0 0 0
10-10-2019 25.2 (19:00) 5.4 (00:00) 15.3 3.89 (17:50) 2.22 (21:00) 0 0 0 0 0
09-10-2019 20.9 (17:10) 8.8 (00:00) 14.8 7.22 (03:40) 3.89 (03:20) 0 0 0 0 0
08-10-2019 26.4 (16:20) 10.1 (00:00) 18.3 7.78 (15:10) 4.44 (18:20) -- 0 -- 0 0
07-10-2019 29.5 (17:40) 8.4 (00:00) 18.9 4.72 (18:40) 2.5 (18:50) 0 0 0 0 0
06-10-2019 26 (18:00) 9.6 (00:00) 17.8 6.67 (18:40) 3.33 (18:50) 0 0 0 0 0
05-10-2019 25.8 (17:40) 8.4 (00:00) 17.1 7.5 (18:20) 3.89 (19:10) 0 0 0 0 0
04-10-2019 25.9 (16:40) 14.6 (00:00) 20.3 7.5 (17:00) 4.17 (18:00) 0 0 0 0 0
03-10-2019 26.2 (17:30) 7.8 (00:00) 17 7.5 (19:00) 3.89 (18:10) 0 0 0 0 0
02-10-2019 23 (18:00) 12.8 (00:00) 17.9 7.78 (04:00) 4.44 (03:20) 0 0 0 0 0
01-10-2019 23.5 (17:10) 14.4 (00:00) 18.9 10 (16:30) 5.28 (19:00) 0 0 0 0 0
30-09-2019 28.5 (17:30) 15.1 (00:00) 21.8 6.39 (18:30) 3.61 (17:50) 0 0 0 0 0
29-09-2019 26.5 (16:50) 7.4 (00:00) 17 6.94 (19:10) 3.89 (19:10) 0 0 0 0 0
28-09-2019 26.7 (18:50) 8.4 (00:00) 17.6 3.89 (17:00) 1.94 (15:30) 0 0 0 0 0
27-09-2019 22.3 (18:20) 10.4 (00:00) 16.3 6.94 (17:20) 3.61 (15:40) 0 0 0 0 0
26-09-2019 26.7 (17:40) 8.9 (00:00) 17.8 6.67 (18:30) 3.61 (18:00) 0 0 0 0 0
25-09-2019 21.4 (15:50) 13.2 (00:00) 17.3 6.67 (17:30) 3.33 (19:00) 0 0 0 0 0
24-09-2019 22.3 (17:10) 13.9 (00:00) 18.1 9.72 (15:10) 5 (19:20) 0.4 0 0.4 0 0
23-09-2019 19.4 (16:20) 10.5 (00:00) 14.9 4.72 (18:50) 2.78 (18:50) 0 0 0 0 0
22-09-2019 21.7 (17:10) 11.3 (00:00) 16.5 6.94 (15:40) 3.89 (17:40) 1 1 0 0 0

Gráficas

Temp. máximas Temp. mínimas Temp. medias Precipitaciones Rachas de viento máximas Velocidades máximas media en intervalos de 10 minutos

Datos horarios

Fecha y hora oficial Temperatura (ºC) Velocidad del viento (km/h) Dirección del viento Racha (km/h) Dirección de racha Precipitación (mm) Presión (hPa) Tendencia (hPa) Humedad (%)
2019-10-21 23:00:00 7.7 4 Sudeste 8 Sur 0 957.2 1.4 92
2019-10-21 22:00:00 7.5 4 Este 5 Este 0 956.7 1.5 94
2019-10-21 21:00:00 8.5 2 Este 5 Este 0 956.3 1.2 89
2019-10-21 20:00:00 9.4 3 Norte 18 Sudeste 0 955.8 0.8 81
2019-10-21 19:00:00 9.9 6 Sudeste 19 Sudeste 0.2 955.2 0.3 85
2019-10-21 18:00:00 10.2 12 Sudeste 20 Sudeste 0.4 955.1 -0.2 82
2019-10-21 17:00:00 11.3 12 Sudeste 21 Sudeste 0 955 -1 74
2019-10-21 16:00:00 13 7 Este 16 Este 0 954.9 -1.6 53
2019-10-21 15:00:00 14 5 Oeste 11 Oeste 0 955.3 -1.2 57
2019-10-21 14:00:00 11.6 4 Sudoeste 9 Noroeste 0 956 -0.5 73
2019-10-21 13:00:00 10.4 5 Oeste 10 Oeste 0 956.5 0.2 80
2019-10-21 12:00:00 9.4 3 Norte 6 Noroeste 0 956.5 0.6 86
2019-10-21 11:00:00 8.8 2 Noroeste 5 Oeste 0 956.5 0.9 90
2019-10-21 10:00:00 8.1 0 Calma 5 Nordeste 0 956.3 0.9 93
2019-10-21 09:00:00 7.7 4 Noroeste 8 Oeste 0 955.9 1 94
2019-10-21 08:00:00 7.6 4 Este 10 Sudeste 0 955.6 0.6 93
2019-10-21 07:00:00 7.7 2 Sur 6 Noroeste 0 955.4 0.2 95
2019-10-21 06:00:00 7.8 0 Calma 8 Noroeste 0 954.9 -0.2 94
2019-10-21 05:00:00 7.9 3 Sudeste 7 Sur 0 955 0.2 92
2019-10-21 04:00:00 8.2 2 Sur 5 Sur 0 955.2 0.5 91
2019-10-21 03:00:00 7.8 2 Noroeste 6 Nordeste 0 955.1 0.5 93
2019-10-21 02:00:00 7.4 0 Calma 5 Norte 0 954.8 0.8 95
2019-10-21 01:00:00 7.1 0 Calma 5 Sudeste 0 954.7 1 94
2019-10-21 00:00:00 7.5 2 Este 5 Nordeste 0 954.6 1.3 91
2019-10-20 23:00:00 8.8 0 Calma 8 Noroeste 0 954 1.7 87
2019-10-20 22:00:00 9.9 3 Noroeste 10 Noroeste 0 953.7 2.1 83
2019-10-20 21:00:00 10 5 Noroeste 12 Oeste 0 953.3 2.3 82
2019-10-20 20:00:00 10.5 4 Oeste 12 Oeste 0 952.3 1.8 80
2019-10-20 19:00:00 11.1 6 Oeste 17 Oeste 0 951.6 1.8 78
2019-10-20 18:00:00 12.1 8 Oeste 24 Sudoeste 0 951 1.3 72
2019-10-20 17:00:00 11.6 11 Oeste 25 Noroeste 0.2 950.5 0.8 74
2019-10-20 16:00:00 13.1 17 Oeste 33 Noroeste 0 949.8 0.1 64
2019-10-20 15:00:00 14 11 Oeste 23 Noroeste 0 949.7 0.1 62
2019-10-20 14:00:00 12.8 11 Oeste 21 Noroeste 0 949.7 0.6 65
2019-10-20 13:00:00 11.7 9 Oeste 19 Sudoeste 0 949.7 1.3 71
2019-10-20 12:00:00 10.3 6 Oeste 15 Oeste 0 949.6 2.2 80
2019-10-20 11:00:00 9.3 5 Oeste 13 Oeste 0 949.1 2.3 84
2019-10-20 10:00:00 8.6 3 Oeste 9 Oeste 0 948.4 2 86
2019-10-20 09:00:00 8.4 3 Oeste 10 Noroeste 0 947.4 1.7 86
2019-10-20 08:00:00 8.3 4 Oeste 12 Sudoeste 0 946.8 1.5 86
2019-10-20 07:00:00 8.2 6 Oeste 14 Oeste 0 946.4 1.6 87
2019-10-20 06:00:00 8.1 5 Oeste 13 Sudoeste 0.2 945.7 1.3 87
2019-10-20 05:00:00 8.2 6 Oeste 15 Oeste 0 945.3 1.6 88
2019-10-20 04:00:00 8.5 7 Oeste 18 Oeste 0.2 944.8 1.6 88
2019-10-20 03:00:00 8.8 7 Oeste 16 Oeste 0 944.4 1.7 89
2019-10-20 02:00:00 9 6 Oeste 14 Oeste 0 943.7 1.2 90
2019-10-20 01:00:00 9.3 5 Oeste 15 Oeste 0.2 943.2 1.1 94
2019-10-20 00:00:00 9.4 6 Sudoeste 14 Sudoeste 0 942.7 0.6 95
2019-10-19 23:00:00 9.8 4 Oeste 8 Noroeste 0 942.5 0.8 93
2019-10-19 22:00:00 9.9 3 Este 6 Sudeste 0 942.1 0.6 94
2019-10-19 21:00:00 10.2 0 Calma 6 Oeste 0 942.1 0.3 94
2019-10-19 20:00:00 10.4 2 Oeste 7 Oeste 0 941.7 -1.1 92
2019-10-19 19:00:00 10.6 3 Sudoeste 6 Oeste 0 941.5 -1.8 92
2019-10-19 18:00:00 10.3 2 Sudoeste 8 Sudeste 2.6 941.8 -1.5 96
2019-10-19 17:00:00 10.1 3 Oeste 8 Sudeste 6.8 942.8 -1 94
2019-10-19 16:00:00 10.5 2 Nordeste 13 Este 4 943.3 -1.3 90
2019-10-19 15:00:00 11.3 6 Norte 14 Noroeste 4 943.3 -1.9 91
2019-10-19 14:00:00 11.8 3 Nordeste 6 Este 2.6 943.8 -1.6 92
2019-10-19 13:00:00 11.8 2 Este -- -- -- 944.6 -0.6 92
2019-10-19 12:00:00 11.7 5 Sudeste 8 Sudeste 2.2 945.2 -0.2 95
2019-10-19 11:00:00 11.7 3 Sur 6 Sur 4.6 945.4 -0.5 95
2019-10-19 10:00:00 11.7 3 Sudoeste 13 Sur 3.2 945.2 -0.9 95
2019-10-19 09:00:00 11.6 5 Sur 9 Sur 2.2 945.4 -0.9 96
2019-10-19 08:00:00 11.6 2 Sur 8 Sudeste 1.4 945.9 -0.9 95
2019-10-19 07:00:00 11.9 0 Calma 8 Sudeste 0.2 946.1 -1.6 93
2019-10-19 06:00:00 11.8 3 Sudeste 9 Sudeste 0 946.3 -2 93
2019-10-19 05:00:00 12 0 Calma 3 Nordeste 0 946.8 -2.1 94
2019-10-19 04:00:00 12.1 0 Calma 6 Este 0 947.7 -1.4 93
2019-10-19 03:00:00 12.2 2 Sur 4 Sudeste 0.2 948.3 -1.6 91
2019-10-19 02:00:00 12.5 4 Este 5 Este 0 948.9 -1.1 88
2019-10-19 01:00:00 13.3 2 Norte 13 Noroeste 0.2 949.1 -1.1 83
2019-10-19 00:00:00 13.6 5 Noroeste 12 Noroeste 0 949.9 -0.6 77
2019-10-18 23:00:00 13.6 2 Este 4 Este 0 950 -1 79
2019-10-18 22:00:00 13.8 2 Norte 6 Norte 0 950.2 -0.8 79
2019-10-18 21:00:00 14.1 2 Oeste 11 Sudeste 0 950.5 -1.2 78
2019-10-18 20:00:00 14.5 2 Nordeste 4 Sudeste 0 951 -1.5 77
2019-10-18 19:00:00 15.4 3 Sudeste 8 Sudeste 0 951 -1.8 70
2019-10-18 18:00:00 15.5 3 Este 8 Nordeste 0 951.7 -- 68
2019-10-18 17:00:00 15.7 4 Norte 13 Noroeste 0 952.5 -1.9 69
2019-10-18 16:00:00 15.6 4 Noroeste -- -- -- 952.8 -2.2 69
2019-10-18 15:00:00 -- -- -- -- -- -- -- -- --
2019-10-18 14:00:00 14.3 3 Norte 10 Noroeste 0 954.4 -0.9 72
2019-10-18 13:00:00 13.5 6 Noroeste 12 Noroeste 0 955 -0.1 75
2019-10-18 12:00:00 12.8 4 Oeste 9 Oeste 0 955.1 0.3 80
2019-10-18 11:00:00 12.4 2 Nordeste 8 Nordeste 0 955.3 0.5 81
2019-10-18 10:00:00 11.5 3 Nordeste 8 Nordeste 0 955.1 0.4 85
2019-10-18 09:00:00 11.1 0 Calma 3 Norte 0 954.8 0.2 88
2019-10-18 08:00:00 11 2 Nordeste 4 Norte 0 954.8 0.2 86
2019-10-18 07:00:00 11.2 2 Este 7 Este 0 954.7 0.2 84
2019-10-18 06:00:00 11.5 3 Noroeste 12 Oeste 0 954.6 0.2 81
2019-10-18 05:00:00 11.9 5 Oeste 18 Oeste 0 954.6 0.5 82
2019-10-18 04:00:00 12.4 2 Oeste 10 Sudoeste 0 954.5 0.4 83
2019-10-18 03:00:00 12.8 6 Sudoeste 13 Oeste 0 954.4 0.6 83
2019-10-18 02:00:00 13.2 7 Oeste 18 Oeste 0 954.1 0.4 85
2019-10-18 01:00:00 13.9 5 Oeste 15 Noroeste 0 954.1 1 87
2019-10-18 00:00:00 14.6 6 Oeste 15 Oeste 0 953.8 1 88
2019-10-17 23:00:00 15 3 Norte 9 Oeste 1.4 953.7 1 89
2019-10-17 22:00:00 16.6 3 Noroeste 6 Norte 0 953.1 0.5 74
2019-10-17 21:00:00 17.5 3 Oeste 10 Oeste 0 952.8 0.3 65
2019-10-17 20:00:00 18.1 4 Sudoeste 10 Sudoeste 0 952.7 0 61
2019-10-17 19:00:00 19.1 3 Noroeste 16 Oeste 0 952.6 -0.4 54
2019-10-17 18:00:00 20.7 6 Noroeste 21 Oeste 0 952.5 -1.2 44
2019-10-17 17:00:00 20.5 13 Oeste 26 Oeste 0 952.7 -1.4 46
2019-10-17 16:00:00 20.5 10 Oeste 26 Noroeste 0 953 -1.2 46
2019-10-17 15:00:00 19.4 13 Oeste 24 Oeste 0 953.7 -0.5 48
2019-10-17 14:00:00 18.3 10 Sudoeste 32 Sudoeste 0 954.1 0 56
2019-10-17 13:00:00 18 10 Sudoeste 23 Sudoeste 0 954.2 0.6 67
2019-10-17 12:00:00 16 9 Oeste -- -- -- 954.2 1.5 81
2019-10-17 11:00:00 14.3 0 Calma 5 Norte 0 954.1 1.7 93
2019-10-17 10:00:00 13 0 Calma 6 Noroeste 0 953.6 1.5 97
2019-10-17 09:00:00 12.6 2 Noroeste 8 Noroeste 0 952.7 1.1 97
2019-10-17 08:00:00 12.8 3 Sudeste 6 Sudeste 0.8 952.4 0.6 98
2019-10-17 07:00:00 12.8 3 Oeste 5 Oeste 0.2 952.1 0 98
2019-10-17 06:00:00 12.9 3 Sudeste 5 Sudoeste 0 951.6 -0.9 97
2019-10-17 05:00:00 12.8 2 Norte 8 Noroeste 0.2 951.8 -0.9 97
2019-10-17 04:00:00 12.9 5 Noroeste 8 Noroeste 0.2 952.1 -1.1 97
2019-10-17 03:00:00 12.9 5 Sudeste 10 Sudeste 0.4 952.5 -1 95
2019-10-17 02:00:00 13.1 5 Este 15 Nordeste 1 952.7 -0.5 94
2019-10-17 01:00:00 13.1 2 Noroeste -- -- -- 953.2 0.4 96
2019-10-17 00:00:00 13.3 2 Sudeste 5 Sur 2.8 953.5 0.5 96
2019-10-16 23:00:00 13.3 2 Sudeste 4 Oeste 2.2 953.2 0.2 96
2019-10-16 22:00:00 13.4 0 Calma 8 Sudeste 1.8 952.8 -0.4 95
2019-10-16 21:00:00 13.7 3 Sur 8 Sur 0.2 953 -0.1 93
2019-10-16 20:00:00 13.9 0 Calma 5 Este 1.2 953 0 92
2019-10-16 19:00:00 14.5 0 Calma 6 Norte 0.4 953.2 0.4 88
2019-10-16 18:00:00 14.9 2 Norte 7 Este 0.6 953.1 -0.6 85
2019-10-16 17:00:00 15.6 3 Noroeste 16 Este 0 953 -1.3 78
2019-10-16 16:00:00 15.5 10 Este 24 Este 0 952.8 -1.8 72
2019-10-16 15:00:00 15.2 9 Este 19 Este 0 953.7 -0.9 72
2019-10-16 14:00:00 15.7 3 Este 9 Norte 0 954.3 -0.1 70
2019-10-16 13:00:00 14.9 3 Norte 9 Nordeste 0 954.6 0.1 72
2019-10-16 12:00:00 14.1 3 Este 10 Oeste 0 954.6 0.4 82
2019-10-16 11:00:00 13.3 2 Oeste 8 Sudoeste 0 954.4 -0.4 84
2019-10-16 10:00:00 11.7 4 Sur 10 Oeste 0 954.5 -0.2 91
2019-10-16 09:00:00 11.4 3 Sur 10 Oeste 0 954.2 -0.4 91
2019-10-16 08:00:00 11.4 4 Oeste 10 Sudeste 0.2 954.8 -0.1 91
2019-10-16 07:00:00 11.8 8 Sudeste 13 Sudeste 0.4 954.7 -0.6 87
2019-10-16 06:00:00 11.7 5 Sur 9 Sudeste 0 954.6 -1 85
2019-10-16 05:00:00 11.9 3 Sur 9 Sur 0 954.9 -1 83
2019-10-16 04:00:00 12 4 Sudeste 8 Sur 0 955.3 -0.9 84
2019-10-16 03:00:00 11.9 2 Sudoeste 9 Sudeste 0 955.6 -0.7 83
2019-10-16 02:00:00 11.7 5 Sudeste 10 Sudeste 0 955.9 -0.5 84
2019-10-16 01:00:00 11.8 3 Este 9 Sur 0 956.2 -0.2 85
2019-10-16 00:00:00 12 2 Sur 7 Norte 0 956.3 0.1 84
2019-10-15 23:00:00 12.1 2 Sudeste 6 Oeste 0 956.4 0 84
2019-10-15 22:00:00 12.2 2 Este 7 Sudeste 0 956.4 -0.3 80
2019-10-15 21:00:00 12.2 4 Nordeste 8 Nordeste 0 956.2 -0.2 76
2019-10-15 20:00:00 12.7 0 Calma 9 Noroeste 0 956.4 -0.2 77
2019-10-15 19:00:00 12.9 3 Noroeste 14 Noroeste 0 956.7 0.2 76
2019-10-15 18:00:00 13.1 5 Noroeste 15 Noroeste 0 956.4 -0.3 75
2019-10-15 17:00:00 13.2 5 Noroeste 23 Noroeste 0 956.6 -0.6 74
2019-10-15 16:00:00 13.9 8 Oeste 19 Noroeste 0 956.5 -0.8 66
2019-10-15 15:00:00 14 8 Oeste 17 Oeste 0 956.7 -0.9 65
2019-10-15 14:00:00 13.6 8 Oeste 19 Oeste 0 957.2 -0.7 64
2019-10-15 13:00:00 12.8 5 Noroeste 17 Norte 0 957.3 -0.5 70
2019-10-15 12:00:00 11.7 4 Noroeste 13 Norte 0 957.6 0.5 76
2019-10-15 11:00:00 10.6 4 Nordeste 9 Nordeste 0 957.9 1 79
2019-10-15 10:00:00 8.8 2 Nordeste 4 Nordeste 0 957.8 1.2 91
2019-10-15 09:00:00 8 3 Nordeste 5 Nordeste 0 957.1 0.8 94
2019-10-15 08:00:00 8 3 Este 5 Este 0 956.9 0.7 91
2019-10-15 07:00:00 7.8 2 Norte 6 Norte 0 956.6 0.5 92
2019-10-15 06:00:00 7.6 2 Norte 7 Noroeste 0 956.3 0.2 92
2019-10-15 05:00:00 8.1 3 Norte 9 Noroeste 0 956.2 0.5 89
2019-10-15 04:00:00 8.9 5 Noroeste 14 Noroeste 0 956.1 0.8 88
2019-10-15 03:00:00 8.9 7 Oeste 18 Oeste 0 956.1 0.9 86
2019-10-15 02:00:00 9.3 8 Oeste 19 Oeste 0 955.7 0.8 84
2019-10-15 01:00:00 9 7 Oeste 19 Oeste 0 955.3 1.5 83
2019-10-15 00:00:00 9 6 Oeste 19 Oeste 0 955.2 1.7 85
2019-10-14 23:00:00 9 7 Oeste 21 Oeste 0 954.9 2.1 85
2019-10-14 22:00:00 8.5 5 Oeste 16 Oeste 0.8 953.8 1.6 91
2019-10-14 21:00:00 9 6 Oeste 15 Oeste 0.2 953.5 3.1 84
2019-10-14 20:00:00 9.3 6 Sudoeste 13 Oeste 0 952.8 3.3 85
2019-10-14 19:00:00 9.7 7 Oeste 17 Sudoeste 0.6 952.2 2.5 85
2019-10-14 18:00:00 10.6 11 Noroeste 28 Noroeste 1 950.4 2.5 80
2019-10-14 17:00:00 11.5 10 Oeste 27 Oeste 0 949.5 -- 76
2019-10-14 16:00:00 10.1 4 Noroeste 40 Noroeste 5.4 949.7 1.1 87
2019-10-14 15:00:00 13.6 4 Este -- -- -- 947.9 -0.4 78
2019-10-14 14:00:00 -- -- -- -- -- -- -- -- --
2019-10-14 13:00:00 11.5 3 Nordeste 6 Oeste 1 948.6 2 87
2019-10-14 12:00:00 11.2 4 Oeste 9 Oeste 1.4 948.3 2.5 92
2019-10-14 11:00:00 11.1 3 Oeste 10 Sudoeste 0 947.3 0.7 89
2019-10-14 10:00:00 10.7 6 Sudoeste 11 Sudoeste 0 946.6 -0.4 91
2019-10-14 09:00:00 10.4 6 Este 15 Este 0.8 945.8 -1.4 89
2019-10-14 08:00:00 10.7 5 Este 8 Sudeste 0.4 946.6 -0.3 92
2019-10-14 07:00:00 11.2 2 Sudoeste 13 Sudoeste 1.8 947 1.1 86
2019-10-14 06:00:00 12 4 Oeste 18 Noroeste 0.4 947.2 2.1 83
2019-10-14 05:00:00 12.7 9 Noroeste 31 Noroeste 0 946.9 1 74
2019-10-14 04:00:00 16.6 8 Oeste 34 Sur 0 945.9 -0.6 72
2019-10-14 03:00:00 19.3 12 Sur 35 Sur 0 945.1 -2.2 50
2019-10-14 02:00:00 18.5 9 Sudoeste 18 Sur 0 945.9 -2 55
2019-10-14 01:00:00 17.9 5 Nordeste 22 Sur 0 946.5 -1.3 60
2019-10-14 00:00:00 16.6 5 Sudeste 14 Sur 0 947.3 -0.8 72
2019-10-13 23:00:00 15.8 4 Oeste 11 Sur 0 947.9 -0.3 87
2019-10-13 22:00:00 15.8 3 Sur 9 Sudoeste 0 947.8 -0.9 90
2019-10-13 21:00:00 15.5 4 Sur 11 Nordeste 0 948.1 -0.8 92
2019-10-13 20:00:00 15.6 5 Este 8 Este 0 948.2 -1 91
2019-10-13 19:00:00 16 4 Sudoeste 9 Oeste 0 948.7 -1 91
2019-10-13 18:00:00 16.3 3 Noroeste 12 Oeste 0 948.9 -1.4 90
2019-10-13 17:00:00 16.4 3 Noroeste 8 Noroeste 0 949.2 -1.5 90
2019-10-13 16:00:00 16.1 3 Oeste 6 Oeste 0 949.7 -1.3 91
2019-10-13 15:00:00 15.6 6 Oeste 10 Oeste 0 950.3 -0.2 91
2019-10-13 14:00:00 15.1 3 Sudeste 10 Sudeste 0 950.7 0.8 90
2019-10-13 13:00:00 14.4 4 Sudeste 9 Sudeste 0.6 951 1.9 92
2019-10-13 12:00:00 14.4 4 Oeste 7 Oeste 0.4 950.5 1.7 90
2019-10-13 11:00:00 14 3 Sudoeste 18 Noroeste 1.2 949.9 0.8 86
2019-10-13 10:00:00 14.7 4 Sur 15 Sur 0 949.1 0.4 71
2019-10-13 09:00:00 14.3 6 Sur 19 Este 0 948.8 0.1 72
2019-10-13 08:00:00 13.1 5 Sur 15 Sur 0 949.1 0.6 82
2019-10-13 07:00:00 12.9 3 Noroeste 11 Sur 0 948.7 -0.1 82
2019-10-13 06:00:00 12.2 4 Sur 6 Sur 0 948.7 0.1 86
2019-10-13 05:00:00 12.7 0 Calma 8 Sudeste 0 948.5 -0.5 82
2019-10-13 04:00:00 13.3 3 Sudeste 8 Oeste 0 948.8 -0.4 82
2019-10-13 03:00:00 14 2 Sudoeste 7 Sur 0 948.6 -0.8 76
2019-10-13 02:00:00 15.3 3 Este 7 Nordeste 0 949 -0.1 71
2019-10-13 01:00:00 16.9 4 Nordeste 7 Sudeste 0 949.2 0.6 68
2019-10-13 00:00:00 18.6 4 Nordeste 13 Nordeste 0 949.4 1.1 64
2019-10-12 23:00:00 20 4 Norte 17 Noroeste 0 949.1 1.4 61
2019-10-12 22:00:00 21.4 8 Noroeste 24 Noroeste 0 948.6 1.1 56
2019-10-12 21:00:00 23.4 6 Noroeste 28 Sur 0 948.3 0.5 48
2019-10-12 20:00:00 25.1 12 Sur 28 Sudoeste 0 947.7 -0.4 37
2019-10-12 19:00:00 26.6 10 Oeste 34 Oeste 0 947.5 -0.8 33
2019-10-12 18:00:00 27.2 12 Oeste 34 Noroeste 0 947.8 -1.4 32
2019-10-12 17:00:00 27.6 10 Oeste 28 Oeste 0 948.1 -2.4 30
2019-10-12 16:00:00 27.6 10 Oeste 23 Oeste 0 948.3 -3.1 30
2019-10-12 15:00:00 26.4 5 Oeste 15 Oeste 0 949.2 -2.7 35
2019-10-12 14:00:00 24.1 5 Noroeste 12 Nordeste 0 950.5 -1.6 41
2019-10-12 13:00:00 21.4 4 Oeste 9 Oeste 0 951.4 -0.8 51
2019-10-12 12:00:00 18.1 4 Sudoeste 8 Oeste 0 951.9 0.2 62
2019-10-12 11:00:00 14.8 5 Oeste 9 Oeste 0 952.1 0.3 74
2019-10-12 10:00:00 12.4 2 Sudeste 10 Noroeste 0 952.2 0.9 82
2019-10-12 09:00:00 10.7 4 Este 7 Sudeste 0 951.7 0.1 86
2019-10-12 08:00:00 11.2 0 Calma 7 Noroeste 0 951.8 0.1 84
2019-10-12 07:00:00 11.9 3 Nordeste 6 Sudeste 0 951.3 -0.7 82
2019-10-12 06:00:00 12.4 3 Sudeste 5 Sur 0 951.6 -0.8 81
2019-10-12 05:00:00 13.1 3 Sur 12 Noroeste 0 951.7 -0.9 79
2019-10-12 04:00:00 13.8 3 Nordeste 6 Este 0 952 -1.1 75
2019-10-12 03:00:00 14.3 2 Nordeste 6 Nordeste 0 952.4 -0.8 73
2019-10-12 02:00:00 15.1 2 Oeste 6 Sur 0 952.6 -0.4 70
2019-10-12 01:00:00 15.4 0 Calma 6 Sur 0 953.1 0.7 68
2019-10-12 00:00:00 16.3 4 Sur 6 Sur 0 953.2 1 65
2019-10-11 23:00:00 17.1 0 Calma 4 Sur 0 953 0.8 61
2019-10-11 22:00:00 19.1 0 Calma 12 Noroeste 0 952.4 0 55
2019-10-11 21:00:00 21.3 4 Este 9 Sudeste 0 952.2 -0.4 48
2019-10-11 20:00:00 24.6 2 Sudeste 16 Sudoeste 0 952.2 -0.8 40
2019-10-11 19:00:00 27.3 9 Oeste 24 Oeste 0 952.4 -1.2 33
2019-10-11 18:00:00 28.1 11 Oeste 28 Noroeste 0 952.6 -2 32
2019-10-11 17:00:00 28.4 9 Oeste 22 Oeste 0 953 -2.9 32
2019-10-11 16:00:00 27.2 6 Noroeste 12 Noroeste 0 953.6 -3.3 31
2019-10-11 15:00:00 24.4 4 Oeste 11 Oeste 0 954.6 -3.2 35
2019-10-11 14:00:00 21.2 4 Sudoeste 9 Sudoeste 0 955.9 -2.5 41
2019-10-11 13:00:00 18 4 Oeste 9 Oeste 0 956.9 -1.5 48
2019-10-11 12:00:00 15 3 Oeste 6 Noroeste 0 957.8 -0.2 58
2019-10-11 11:00:00 12.1 3 Oeste 7 Oeste 0 958.4 0.8 68
2019-10-11 10:00:00 10.2 0 Calma 4 Este 0 958.4 0.9 75
2019-10-11 09:00:00 7.2 0 Calma 7 Noroeste 0 958 0.7 87
2019-10-11 08:00:00 7.1 3 Sudeste 5 Este 0 957.6 0.2 86
2019-10-11 07:00:00 7.6 0 Calma 3 Norte 0 957.5 -0.2 82
2019-10-11 06:00:00 8.2 2 Este 4 Sudeste 0 957.3 -0.6 81
2019-10-11 05:00:00 8.9 2 Este 5 Noroeste 0 957.4 -0.4 80
2019-10-11 04:00:00 9.5 0 Calma 3 Norte 0 957.7 -0.3 78
2019-10-11 03:00:00 10.1 0 Calma 3 Sudeste 0 957.9 0 74
2019-10-11 02:00:00 10.9 3 Este 4 Sudeste 0 957.8 0.2 71
2019-10-11 01:00:00 11.8 0 Calma 3 Nordeste 0 958 0.8 66
2019-10-11 00:00:00 13.3 0 Calma 5 Sur 0 957.9 1.1 60
2019-10-10 23:00:00 15.7 2 Sudoeste 8 Sur 0 957.6 1.4 55
2019-10-10 22:00:00 18.5 6 Sudeste 13 Sudeste 0 957.2 1.1 43
2019-10-10 21:00:00 18.8 8 Sudeste 13 Sudeste 0 956.8 0.5 47
2019-10-10 20:00:00 21.6 3 Este 5 Noroeste 0 956.2 -0.5 43
2019-10-10 19:00:00 25 5 Oeste 13 Oeste 0 956.1 -1.4 31
2019-10-10 18:00:00 24.9 6 Oeste 14 Oeste 0 956.3 -2.1 33
2019-10-10 17:00:00 24.4 6 Oeste 13 Sudoeste 0 956.7 -2.8 35
2019-10-10 16:00:00 22.9 6 Sudoeste 12 Oeste 0 957.5 -3.1 36
2019-10-10 15:00:00 20.9 6 Sudoeste 12 Sur 0 958.4 -2.9 42
2019-10-10 14:00:00 17.9 6 Oeste 12 Sudoeste 0 959.5 -2.2 49
2019-10-10 13:00:00 15.2 5 Oeste 11 Oeste 0 960.6 -1.1 56
2019-10-10 12:00:00 12.2 5 Oeste 10 Noroeste 0 961.3 0.2 67
2019-10-10 11:00:00 10.6 3 Noroeste 5 Norte 0 961.7 0.7 70
2019-10-10 10:00:00 7.8 3 Noroeste 6 Noroeste 0 961.7 0.9 83
2019-10-10 09:00:00 5.5 3 Este 4 Este 0 961.1 0.3 91
2019-10-10 08:00:00 5.8 0 Calma 4 Nordeste 0 961 0.3 88
2019-10-10 07:00:00 6.2 0 Calma 5 Sudeste 0 960.8 0 87
2019-10-10 06:00:00 6.5 3 Este 5 Noroeste 0 960.8 0 86
2019-10-10 05:00:00 7.7 3 Noroeste 10 Sudeste 0 960.7 -0.3 83
2019-10-10 04:00:00 8.1 4 Sudeste 6 Sudeste 0 960.8 0 82
2019-10-10 03:00:00 8.9 2 Sur 5 Sur 0 960.8 0.3 80
2019-10-10 02:00:00 9.4 0 Calma 7 Sudeste 0 961 0.6 76
2019-10-10 01:00:00 10.5 5 Sudeste 8 Sudeste 0 960.8 0.9 73
2019-10-10 00:00:00 11.6 3 Sudeste 7 Sudeste 0 960.5 1 68
2019-10-09 23:00:00 13 3 Sur 9 Oeste 0 960.4 1.5 64
2019-10-09 22:00:00 14.4 3 Sur 15 Sudoeste 0 959.9 1.2 58
2019-10-09 21:00:00 15.6 4 Sudoeste 9 Sudoeste 0 959.5 1 54
2019-10-09 20:00:00 17.3 5 Oeste 18 Noroeste 0 958.9 0.2 49
2019-10-09 19:00:00 19.3 11 Oeste 24 Noroeste 0 958.7 -0.4 42
2019-10-09 18:00:00 20.2 12 Oeste 21 Oeste 0 958.5 -0.9 38
2019-10-09 17:00:00 20.7 7 Noroeste 22 Oeste 0 958.7 -1.4 39
2019-10-09 16:00:00 20.3 8 Oeste 18 Noroeste 0 959.1 -1.6 37
2019-10-09 15:00:00 19.3 9 Oeste 19 Noroeste 0 959.4 -2 35
2019-10-09 14:00:00 18.2 7 Oeste 17 Noroeste 0 960.1 -1.4 40
2019-10-09 13:00:00 16.7 6 Sudoeste 17 Oeste 0 960.7 -0.5 47
2019-10-09 12:00:00 14.9 5 Oeste 12 Oeste 0 961.4 1 57
2019-10-09 11:00:00 13.5 4 Oeste 11 Oeste 0 961.5 1.6 63
2019-10-09 10:00:00 11.8 3 Oeste 7 Oeste 0 961.2 1.3 73
2019-10-09 09:00:00 8.8 3 Sudeste 6 Sudeste 0 960.4 0.7 86
2019-10-09 08:00:00 9.1 0 Calma 5 Nordeste 0 959.9 0.9 81
2019-10-09 07:00:00 10.6 4 Noroeste 11 Oeste 0 959.9 0.8 74
2019-10-09 06:00:00 11.4 5 Oeste 13 Oeste 0 959.7 1.1 71
2019-10-09 05:00:00 12.2 6 Oeste 17 Oeste 0 959 0.7 77
2019-10-09 04:00:00 12.7 11 Oeste 26 Noroeste 0 959.1 1 75
2019-10-09 03:00:00 13.7 10 Oeste 23 Noroeste 0 958.6 0.5 75
2019-10-09 02:00:00 14.6 12 Oeste 23 Oeste 0 958.3 0.5 74
2019-10-09 01:00:00 14.7 9 Oeste 21 Oeste 0 958.1 0.9 75
2019-10-09 00:00:00 15.8 7 Oeste 26 Oeste 0 958.1 1.3 73
2019-10-08 23:00:00 16.7 14 Oeste 28 Oeste 0 957.8 1.5 73
2019-10-08 22:00:00 17.8 10 Noroeste 21 Noroeste 0 957.2 1.2 71
2019-10-08 21:00:00 18.9 6 Noroeste 13 Noroeste 0 956.8 1.5 71
2019-10-08 20:00:00 20.5 9 Oeste 23 Oeste 0 956.3 0.6 66
2019-10-08 19:00:00 22.5 12 Noroeste 27 Noroeste 0 956 -0.1 62
2019-10-08 18:00:00 24.4 14 Oeste 27 Noroeste 0 955.3 -1.3 53
2019-10-08 17:00:00 25.3 10 Oeste 24 Oeste 0 955.7 -1.6 51
2019-10-08 16:00:00 26 9 Oeste 28 Oeste 0 956.1 -2.4 48
2019-10-08 15:00:00 24.9 6 Oeste 17 Oeste 0 956.6 -2.4 50
2019-10-08 14:00:00 22.9 4 Oeste 14 Noroeste 0 957.3 -2 55
2019-10-08 13:00:00 19.6 5 Noroeste 12 Noroeste 0 958.5 -0.6 56
2019-10-08 12:00:00 17.7 3 Norte -- -- -- 959 0.2 56
2019-10-08 11:00:00 15.1 3 Noroeste 6 Noroeste 0 959.3 0.8 64
2019-10-08 10:00:00 13 2 Noroeste 7 Sudeste 0 959.1 0.8 69
2019-10-08 09:00:00 10.3 0 Calma 4 Sudeste 0 958.8 0.5 81
2019-10-08 08:00:00 10.4 2 Sudeste 4 Noroeste 0 958.5 0 80
2019-10-08 07:00:00 10.8 0 Calma 4 Noroeste 0 958.3 -0.5 78
2019-10-08 06:00:00 11.3 2 Sudeste 4 Este 0 958.3 -0.6 75
2019-10-08 05:00:00 12 0 Calma 4 Norte 0 958.5 -0.2 72
2019-10-08 04:00:00 12.6 2 Sudeste 6 Sur 0 958.8 0 71
2019-10-08 03:00:00 13.8 2 Sur 7 Sur 0 958.9 0.1 67
2019-10-08 02:00:00 14.9 3 Noroeste 10 Sur 0 958.7 -0.3 62
2019-10-08 01:00:00 14.9 4 Sur 8 Sur 0 958.8 0.4 61
2019-10-08 00:00:00 15.9 0 Calma 9 Sudeste 0 958.8 0.8 56
2019-10-07 23:00:00 17.3 4 Sur 8 Sur 0 959 1.6 52
2019-10-07 22:00:00 19 3 Sudeste 6 Sudeste 0 958.4 1.4 45
2019-10-07 21:00:00 21.4 3 Este 9 Oeste 0 958 0.9 41
2019-10-07 20:00:00 25.4 4 Oeste 11 Oeste 0 957.4 0.1 33
2019-10-07 19:00:00 28.1 8 Oeste 17 Oeste 0 957 -0.8 30
2019-10-07 18:00:00 29.2 7 Noroeste 15 Noroeste 0 957.1 -1.6 22
2019-10-07 17:00:00 29 5 Oeste 13 Oeste 0 957.3 -2.3 21
2019-10-07 16:00:00 27.2 3 Sur 10 Noroeste 0 957.8 -2.4 20
2019-10-07 15:00:00 24.3 5 Noroeste 9 Noroeste 0 958.7 -2.2 28
2019-10-07 14:00:00 21.2 5 Noroeste 10 Noroeste 0 959.6 -1.6 40
2019-10-07 13:00:00 18.6 4 Noroeste 8 Oeste 0 960.2 -1 50
2019-10-07 12:00:00 15.9 4 Oeste 8 Noroeste 0 960.9 -0.1 58
2019-10-07 11:00:00 13.1 5 Noroeste 9 Oeste 0 961.2 0.5 65
2019-10-07 10:00:00 11.5 0 Calma 7 Sudeste 0 961.2 0.9 71
2019-10-07 09:00:00 8.6 0 Calma 4 Nordeste 0 961 1.1 84
2019-10-07 08:00:00 9.1 0 Calma 5 Noroeste 0 960.7 1 83
2019-10-07 07:00:00 9.2 0 Calma 4 Este 0 960.3 0.5 84
2019-10-07 06:00:00 9.8 0 Calma 4 Sudeste 0 959.9 -0.4 82
2019-10-07 05:00:00 10.6 2 Este 4 Norte 0 959.7 -0.6 79
2019-10-07 04:00:00 11.6 2 Norte 4 Nordeste 0 959.8 -0.7 75
2019-10-07 03:00:00 12.5 2 Nordeste 6 Norte 0 960.3 -0.2 72
2019-10-07 02:00:00 13.4 0 Calma 7 Sudeste 0 960.3 -0.4 69
2019-10-07 01:00:00 14.2 4 Sur 8 Sudeste 0 960.5 0.3 68
2019-10-07 00:00:00 14.5 3 Sudeste 6 Sudeste 0 960.5 1 65
2019-10-06 23:00:00 15.9 3 Este 6 Noroeste 0 960.7 1.6 61
2019-10-06 22:00:00 18 2 Oeste 14 Oeste 0 960.2 1.7 53
2019-10-06 21:00:00 19.9 5 Oeste 12 Oeste 0 959.5 1.5 52
2019-10-06 20:00:00 22 8 Noroeste 18 Oeste 0 959.1 1.1 44
2019-10-06 19:00:00 24.8 11 Oeste 24 Oeste 0 958.5 -0.2 36
2019-10-06 18:00:00 25.9 8 Noroeste 16 Noroeste 0 958 -1.2 39
2019-10-06 17:00:00 25.3 10 Noroeste 19 Sudoeste 0 958 -1.9 40
2019-10-06 16:00:00 24.7 7 Sudoeste 16 Noroeste 0 958.7 -1.7 40
2019-10-06 15:00:00 22.7 6 Oeste 15 Norte 0 959.2 -2 49
2019-10-06 14:00:00 20.5 4 Norte 12 Noroeste 0 959.9 -1.3 57
2019-10-06 13:00:00 18.2 4 Sudoeste 9 Oeste 0 960.4 -0.7 63
2019-10-06 12:00:00 15.4 4 Oeste 10 Noroeste 0 961.2 1 70
2019-10-06 11:00:00 12.9 2 Este 7 Sudeste 0 961.2 1.2 77
2019-10-06 10:00:00 11.3 4 Sudeste 8 Sudeste 0 961.1 1.6 82
2019-10-06 09:00:00 9.7 0 Calma 7 Sudeste 0 960.2 0.7 90
2019-10-06 08:00:00 9.8 2 Norte 5 Noroeste 0 960 1.2 90
2019-10-06 07:00:00 9.9 2 Norte 8 Sudeste 0 959.5 0.2 89
2019-10-06 06:00:00 9.9 3 Sudeste 4 Sudeste 0 959.5 0 89
2019-10-06 05:00:00 10.7 2 Sudeste 5 Noroeste 0 958.8 -0.8 87
2019-10-06 04:00:00 11 3 Sudeste 7 Sudeste 0 959.3 0.2 82
2019-10-06 03:00:00 11.5 3 Sudeste 8 Sudeste 0 959.5 0.8 83
2019-10-06 02:00:00 12.1 2 Sudeste 6 Sudeste 0 959.6 1.1 82
2019-10-06 01:00:00 13.1 3 Sudeste 7 Sudeste 0 959.1 1.1 77
2019-10-06 00:00:00 14.7 4 Sudeste 16 Noroeste 0 958.7 2.1 72
2019-10-05 23:00:00 16.3 8 Oeste 23 Noroeste 0 958.5 2.1 68
2019-10-05 22:00:00 17.3 3 Oeste 10 Noroeste 0 958 2.2 64
2019-10-05 21:00:00 18.3 5 Noroeste 15 Oeste 0 956.6 1.9 60
2019-10-05 20:00:00 19.7 10 Noroeste 24 Noroeste 0 956.4 1.7 58
2019-10-05 19:00:00 22.5 12 Oeste 27 Oeste 0 955.8 0.8 52
2019-10-05 18:00:00 25.4 11 Oeste 20 Oeste 0 954.7 -0.7 34
2019-10-05 17:00:00 25.3 6 Noroeste 17 Sudoeste 0 954.7 -1.9 41
2019-10-05 16:00:00 24.3 5 Noroeste 17 Oeste 0 955 -2 44
2019-10-05 15:00:00 22.3 3 Norte 17 Sudoeste 0 955.4 -2 50
2019-10-05 14:00:00 19.8 4 Oeste 12 Oeste 0 956.6 -1.2 60
2019-10-05 13:00:00 17.2 6 Noroeste 13 Oeste 0 957 -0.3 68
2019-10-05 12:00:00 14.7 5 Noroeste 9 Noroeste 0 957.4 0.6 77
2019-10-05 11:00:00 11.2 2 Oeste 8 Oeste 0 957.8 1.3 90
2019-10-05 10:00:00 10 3 Noroeste 7 Norte 0 957.3 1 90
2019-10-05 09:00:00 8.5 0 Calma 4 Este 0 956.8 0.5 94
2019-10-05 08:00:00 8.9 0 Calma 3 Este 0 956.5 0 92
2019-10-05 07:00:00 9.6 0 Calma 6 Noroeste 0 956.3 -0.3 90
2019-10-05 06:00:00 10 2 Sudeste 5 Este 0 956.3 -0.3 92
2019-10-05 05:00:00 10.6 2 Noroeste -- -- 0 956.5 -0.1 90
2019-10-05 04:00:00 10.8 0 Calma 4 Este 0 956.6 0 89
2019-10-05 03:00:00 11.5 0 Calma 4 Este 0 956.6 0 86
2019-10-05 02:00:00 12.5 0 Calma 4 Sudoeste 0 956.6 0.1 83
2019-10-05 01:00:00 14 2 Nordeste 10 Sur 0 956.6 0.3 78
2019-10-05 00:00:00 14.6 3 Sudeste 5 Sudeste 0 956.6 0.7 76
2019-10-04 23:00:00 16.4 0 Calma 5 Noroeste 0 956.5 1.1 70
2019-10-04 22:00:00 17.6 3 Nordeste 6 Noroeste 0 956.3 1.5 66
2019-10-04 21:00:00 19 6 Noroeste 13 Noroeste 0 955.9 1.5 61
2019-10-04 20:00:00 20.7 9 Oeste 21 Noroeste 0 955.4 1 55
2019-10-04 19:00:00 22.9 10 Noroeste 24 Oeste 0 954.8 0.1 48
2019-10-04 18:00:00 24.1 15 Oeste 25 Noroeste 0 954.4 -0.8 46
2019-10-04 17:00:00 25.5 14 Oeste 27 Oeste 0 954.4 -1.6 44
2019-10-04 16:00:00 25.5 9 Oeste 19 Oeste 0 954.7 -2.2 40
2019-10-04 15:00:00 24.5 6 Noroeste 18 Noroeste 0 955.2 -2.1 45
2019-10-04 14:00:00 23.7 5 Oeste 18 Oeste 0 956 -1.5 46
2019-10-04 13:00:00 22.7 6 Oeste 18 Sudoeste 0 956.9 -0.4 53
2019-10-04 12:00:00 20.5 5 Oeste 13 Oeste 0 957.3 0.2 69
2019-10-04 11:00:00 18.2 4 Oeste 8 Oeste 0 957.5 0.9 82
2019-10-04 10:00:00 17.2 2 Sur 5 Sudeste 0 957.3 0.3 85
2019-10-04 09:00:00 16.7 0 Calma 8 Nordeste 0 957.1 0.2 87
2019-10-04 08:00:00 16.8 0 Calma 6 Sudeste 0 956.6 -0.4 82
2019-10-04 07:00:00 17 4 Sudeste 7 Sur 0 957 0 81
2019-10-04 06:00:00 16.9 3 Este 6 Sudeste 0 956.9 -0.5 82
2019-10-04 05:00:00 17.3 2 Sur 6 Sur 0 957 -0.8 81
2019-10-04 04:00:00 17.2 0 Calma 5 Sudeste 0 957 -1.2 83
2019-10-04 03:00:00 18.3 2 Sudoeste 6 Noroeste 0 957.4 -0.8 79
2019-10-04 02:00:00 18.8 3 Noroeste 5 Norte 0 957.8 -0.4 76
2019-10-04 01:00:00 19 0 Calma 6 Noroeste 0 958.2 0.2 75
2019-10-04 00:00:00 19.4 0 Calma 6 Noroeste 0 958.2 0.3 70
2019-10-03 23:00:00 19.8 3 Oeste 10 Oeste 0 958.2 0.6 67
2019-10-03 22:00:00 20 3 Oeste 10 Oeste 0 958 0.9 65
2019-10-03 21:00:00 20.4 2 Sur 13 Oeste 0 957.9 1.2 62
2019-10-03 20:00:00 21.5 5 Oeste 24 Oeste 0 957.6 0.9 59
2019-10-03 19:00:00 23.3 14 Noroeste 27 Noroeste 0 957.1 0 51
2019-10-03 18:00:00 26 10 Oeste 21 Noroeste 0 956.7 -1 41
2019-10-03 17:00:00 25.9 10 Oeste 21 Oeste 0 956.7 -1.9 30
2019-10-03 16:00:00 25.4 8 Oeste 19 Noroeste 0 957.1 -2.2 26
2019-10-03 15:00:00 23.7 9 Oeste 17 Oeste 0 957.7 -2.4 28
2019-10-03 14:00:00 20.7 5 Noroeste 14 Noroeste 0 958.6 -1.2 47
2019-10-03 13:00:00 17.9 3 Noroeste 10 Noroeste 0 959.3 -0.2 57
2019-10-03 12:00:00 14.5 5 Oeste 11 Oeste 0 960.1 0.7 69
2019-10-03 11:00:00 12 3 Sudoeste 8 Oeste 0 959.8 0.2 76
2019-10-03 10:00:00 9.7 4 Oeste 6 Oeste 0 959.5 0.4 84
2019-10-03 09:00:00 7.9 2 Noroeste 5 Sudeste 0 959.4 0.5 91
2019-10-03 08:00:00 8.1 0 Calma 4 Oeste 0 959.6 0.8 89
2019-10-03 07:00:00 8.4 0 Calma 4 Sudeste 0 959.1 0.1 88
2019-10-03 06:00:00 9.2 0 Calma 5 Oeste 0 958.9 -0.1 86
2019-10-03 05:00:00 9.4 3 Sudeste 5 Sudeste 0 958.8 -0.3 85
2019-10-03 04:00:00 10.1 0 Calma 3 Noroeste 0 959 -0.1 83
2019-10-03 03:00:00 10.8 2 Sudeste 5 Este 0 959 -0.3 80
2019-10-03 02:00:00 11.7 3 Sur 5 Sur 0 959.1 -0.2 78
2019-10-03 01:00:00 12.6 2 Nordeste 10 Sur 0 959.1 0.2 74
2019-10-03 00:00:00 13.3 4 Sur 8 Sur 0 959.3 0.8 72
2019-10-02 23:00:00 14.4 0 Calma 5 Este 0 959.3 1.3 69
2019-10-02 22:00:00 16.3 3 Sudoeste 10 Oeste 0 958.9 1.2 62
2019-10-02 21:00:00 18.1 4 Sudoeste 10 Sudoeste 0 958.5 1 56
2019-10-02 20:00:00 20 6 Oeste 14 Oeste 0 958 0.2 50
2019-10-02 19:00:00 22.4 5 Noroeste 12 Oeste 0 957.7 -0.4 37
2019-10-02 18:00:00 22.9 5 Oeste 12 Noroeste 0 957.5 -0.9 37
2019-10-02 17:00:00 22.4 8 Oeste 17 Oeste 0 957.8 -1.2 36
2019-10-02 16:00:00 21.3 8 Noroeste 15 Noroeste 0 958.1 -1.4 38
2019-10-02 15:00:00 20.9 8 Oeste 19 Oeste 0 958.4 -1 40
2019-10-02 14:00:00 19.9 9 Oeste 21 Noroeste 0 959 -0.3 45
2019-10-02 13:00:00 18.7 8 Oeste -- -- 0 959.5 0.7 48
2019-10-02 12:00:00 -- 10 Noroeste 20 Oeste 0 959.4 1.7 53
2019-10-02 11:00:00 15.7 9 Oeste 15 Noroeste 0 959.3 1.9 60
2019-10-02 10:00:00 14 5 Oeste 14 Oeste 0 958.8 1.6 68
2019-10-02 09:00:00 13 5 Sudoeste 10 Oeste 0 957.7 0.2 70
2019-10-02 08:00:00 13.2 6 Oeste 15 Oeste 0 957.4 -0.1 68
2019-10-02 07:00:00 12.9 5 Oeste 17 Sudoeste 0 957.2 -0.6 69
2019-10-02 06:00:00 12.8 3 Sudeste 12 Sudoeste 0 957.5 -0.4 72
2019-10-02 05:00:00 13.5 4 Sudoeste 26 Noroeste 0 957.5 0.1 69
2019-10-02 04:00:00 13.8 14 Noroeste 28 Noroeste 0 957.8 0.1 61
2019-10-02 03:00:00 13.9 9 Oeste 20 Oeste 0 957.9 0.6 71
2019-10-02 02:00:00 14.1 8 Oeste 19 Sudoeste 0 957.4 0.4 72
2019-10-02 01:00:00 14.5 8 Oeste 19 Oeste 0 957.7 1.5 72
2019-10-02 00:00:00 14.8 9 Oeste 15 Noroeste 0 957.3 1.9 66
2019-10-01 23:00:00 16 9 Noroeste 20 Noroeste 0 957 2.2 63
2019-10-01 22:00:00 17.5 9 Oeste 16 Oeste 0 956.2 2.1 58
2019-10-01 21:00:00 18.5 5 Noroeste 18 Oeste 0 955.4 1.6 54
2019-10-01 20:00:00 19.6 9 Noroeste 29 Oeste 0 954.8 0.8 50
2019-10-01 19:00:00 21.2 19 Oeste 32 Oeste 0 954.1 0.2 45
2019-10-01 18:00:00 22.7 18 Oeste 32 Noroeste 0 953.8 -0.3 40
2019-10-01 17:00:00 23.2 15 Oeste 36 Oeste 0 954 -1 41
2019-10-01 16:00:00 22.5 12 Oeste 28 Oeste 0 953.9 -1.2 45
2019-10-01 15:00:00 22.5 16 Oeste 30 Oeste 0 954.1 -0.9 43
2019-10-01 14:00:00 20.3 12 Oeste 30 Noroeste 0 955 -0.2 47
2019-10-01 13:00:00 20.9 14 Oeste 32 Oeste 0 955.1 0.7 50
2019-10-01 12:00:00 18.9 12 Oeste 22 Oeste 0 955 1.3 67
2019-10-01 11:00:00 16.5 7 Oeste 17 Oeste 0 955.2 1.8 81
2019-10-01 10:00:00 15.4 5 Oeste 9 Oeste 0 954.4 1 84
2019-10-01 09:00:00 15.2 0 Calma 8 Noroeste 0 953.7 0.4 83
2019-10-01 08:00:00 14.9 2 Noroeste 6 Este 0 953.4 -0.1 84
2019-10-01 07:00:00 14.7 3 Sudeste 5 Este 0 953.4 -0.4 84
2019-10-01 06:00:00 15.8 3 Nordeste 6 Noroeste 0 953.3 -0.6 80
2019-10-01 05:00:00 16.8 0 Calma 11 Oeste 0 953.5 0.1 78
2019-10-01 04:00:00 16.6 5 Oeste 10 Noroeste 0 953.8 0 83
2019-10-01 03:00:00 16.8 4 Noroeste 10 Noroeste 0 953.9 0 82
2019-10-01 02:00:00 17.4 5 Sudeste 9 Sudeste 0 953.4 -0.3 79
2019-10-01 01:00:00 18.5 0 Calma 9 Oeste 0 953.8 0.2 76
2019-10-01 00:00:00 19.6 4 Oeste 8 Oeste 0 953.9 0.9 72
2019-09-30 23:00:00 20.8 5 Oeste 13 Noroeste 0 953.7 1 68
2019-09-30 22:00:00 21.6 5 Oeste 12 Oeste 0 953.6 1.3 63
2019-09-30 21:00:00 23.5 5 Oeste 9 Oeste 0 953 0.7 54
2019-09-30 20:00:00 25.8 7 Noroeste 16 Noroeste 0 952.7 -0.4 45
2019-09-30 19:00:00 27.4 11 Oeste 23 Oeste 0 952.3 -1.4 42
2019-09-30 18:00:00 28.4 10 Oeste 21 Noroeste 0 952.3 -2.3 39
2019-09-30 17:00:00 28.2 5 Noroeste 19 Oeste 0 953.1 -2.5 42
2019-09-30 16:00:00 26.3 7 Noroeste 16 Oeste 0 953.7 -2.8 50
2019-09-30 15:00:00 25.2 6 Oeste 17 Noroeste 0 954.6 -2.5 54
2019-09-30 14:00:00 23.4 6 Noroeste 13 Noroeste 0 955.6 -1.7 60
2019-09-30 13:00:00 21.7 6 Oeste 10 Oeste 0 956.5 -0.6 69
2019-09-30 12:00:00 18.9 3 Noroeste 8 Noroeste 0 957.1 0.1 82
2019-09-30 11:00:00 16.8 3 Noroeste 7 Norte 0 957.3 0.6 92
2019-09-30 10:00:00 16.3 3 Noroeste 5 Norte 0 957.1 0.6 92
2019-09-30 09:00:00 15.9 0 Calma 6 Noroeste 0 957 0.5 91
2019-09-30 08:00:00 15.8 0 Calma 4 Oeste 0 956.7 -0.2 91
2019-09-30 07:00:00 15.2 2 Este 4 Sudoeste 0 956.5 -0.9 92
2019-09-30 06:00:00 15.7 0 Calma 8 Sudeste 0 956.5 -1 90
2019-09-30 05:00:00 16 5 Sudeste 11 Sudeste 0 956.9 -0.8 88
2019-09-30 04:00:00 16 2 Sur 8 Sur 0 957.4 -0.6 89
2019-09-30 03:00:00 15.9 2 Sur 5 Este 0 957.5 -0.7 91
2019-09-30 02:00:00 16.5 0 Calma 5 Norte 0 957.7 -0.3 87
2019-09-30 01:00:00 18.1 0 Calma 5 Noroeste 0 958 0.4 80
2019-09-30 00:00:00 18.9 2 Noroeste 8 Oeste 0 958.2 0.8 76
2019-09-29 23:00:00 19 3 Oeste 6 Nordeste 0 958 1 75
2019-09-29 22:00:00 19.7 3 Norte 8 Sudoeste 0 957.6 1.2 73
2019-09-29 21:00:00 20.5 3 Oeste 16 Noroeste 0 957.4 1.6 70
2019-09-29 20:00:00 21.7 8 Noroeste 25 Noroeste 0 957 1.3 67
2019-09-29 19:00:00 22.7 10 Noroeste 25 Noroeste 0 956.4 0.5 64
2019-09-29 18:00:00 24.5 9 Noroeste 19 Noroeste 0 955.8 -0.8 55
2019-09-29 17:00:00 26.1 6 Noroeste 20 Noroeste 0 955.7 -1.9 43
2019-09-29 16:00:00 25.6 5 Noroeste 15 Oeste 0 955.9 -1.9 41
2019-09-29 15:00:00 24.4 6 Oeste 14 Noroeste 0 956.6 -1.7 41
2019-09-29 14:00:00 21.8 6 Noroeste 12 Noroeste 0 957.6 -0.9 36
2019-09-29 13:00:00 19.2 4 Noroeste 11 Sudoeste 0 957.8 -0.5 43
2019-09-29 12:00:00 16.4 3 Sudoeste 7 Sur 0 958.3 0.3 52
2019-09-29 11:00:00 13.2 3 Sur 8 Oeste 0 958.5 1 64
2019-09-29 10:00:00 10.3 3 Norte 8 Noroeste 0 958.3 1.1 75
2019-09-29 09:00:00 7.8 0 Calma 5 Nordeste 0 958 0.8 87
2019-09-29 08:00:00 7.6 0 Calma 6 Sudeste 0 957.5 0.2 84
2019-09-29 07:00:00 8.1 2 Noroeste 4 Noroeste 0 957.2 -0.3 85
2019-09-29 06:00:00 8.3 2 Noroeste 6 Norte 0 957.2 -0.3 83
2019-09-29 05:00:00 8.7 0 Calma 6 Sur 0 957.3 0 79
2019-09-29 04:00:00 9.6 0 Calma 5 Este 0 957.5 0.1 77
2019-09-29 03:00:00 11 2 Sur 6 Oeste 0 957.5 -0.1 73
2019-09-29 02:00:00 11.5 3 Sur 5 Sur 0 957.3 0.3 72
2019-09-29 01:00:00 12.5 0 Calma 5 Oeste 0 957.4 0.8 68
2019-09-29 00:00:00 13.8 2 Sudeste 5 Sudeste 0 957.6 1.5 64
2019-09-28 23:00:00 16 3 Noroeste 11 Sudeste 0 957 1 56
2019-09-28 22:00:00 17 0 Calma 6 Este 0 956.6 0.6 53
2019-09-28 21:00:00 19.8 4 Sudeste 6 Sudeste 0 956.1 -0.2 45
2019-09-28 20:00:00 25.2 0 Calma 5 Noroeste 0 956 -0.7 32
2019-09-28 19:00:00 26.7 4 Noroeste 10 Oeste 0 956 -1.4 26
2019-09-28 18:00:00 26.2 6 Noroeste 11 Noroeste 0 956.3 -1.7 26
2019-09-28 17:00:00 25.3 6 Oeste 14 Sur 0 956.7 -2.7 27
2019-09-28 16:00:00 23.3 3 Sudoeste 12 Noroeste 0 957.4 -2.9 28
2019-09-28 15:00:00 21.4 5 Noroeste 11 Noroeste 0 958 -3 43
2019-09-28 14:00:00 18.7 4 Este 11 Noroeste 0 959.4 -1.6 54
2019-09-28 13:00:00 16.1 4 Oeste 11 Oeste 0 960.3 -0.5 65
2019-09-28 12:00:00 14 5 Sudoeste 11 Oeste 0 961 0.6 74
2019-09-28 11:00:00 12.2 4 Oeste 10 Noroeste 0 961 1 80
2019-09-28 10:00:00 10 0 Calma 4 Sudeste 0 960.8 0.9 89
2019-09-28 09:00:00 9 0 Calma 5 Noroeste 0 960.4 0.4 91
2019-09-28 08:00:00 8.5 0 Calma 3 Este 0 960 -0.1 93
2019-09-28 07:00:00 9.1 0 Calma 4 Este 0 959.9 -0.2 90
2019-09-28 06:00:00 10.6 0 Calma 6 Oeste 0 960 -0.1 87
2019-09-28 05:00:00 11.2 3 Sudoeste 5 Sudoeste 0 960.1 -0.1 89
2019-09-28 04:00:00 10.6 0 Calma 7 Norte 0 960.1 0 89
2019-09-28 03:00:00 11.1 2 Sudeste 5 Sudeste 0 960.1 0.2 88
2019-09-28 02:00:00 12 0 Calma 6 Sur 0 960.2 0.5 87
2019-09-28 01:00:00 12.9 2 Este 4 Nordeste 0 960.1 0.7 83
2019-09-28 00:00:00 14.3 3 Noroeste 9 Oeste 0 959.9 1 78
2019-09-27 23:00:00 15.8 5 Oeste 10 Sudoeste 0 959.7 1.2 73
2019-09-27 22:00:00 16.6 4 Oeste 9 Sudoeste 0 959.4 1.1 70
2019-09-27 21:00:00 18.3 2 Oeste 11 Oeste 0 958.9 0.5 61
2019-09-27 20:00:00 20.4 8 Oeste 20 Oeste 0 958.5 0 52
2019-09-27 19:00:00 22 8 Oeste 24 Oeste 0 958.3 -0.3 47
2019-09-27 18:00:00 21.7 10 Oeste 25 Sudoeste 0 958.4 -0.5 55
2019-09-27 17:00:00 21.3 9 Sudoeste 21 Sudoeste 0 958.5 -0.9 60
2019-09-27 16:00:00 20.6 9 Oeste 22 Oeste 0 958.6 -1 64
2019-09-27 15:00:00 20.5 8 Oeste 22 Noroeste 0 958.9 -0.9 64
2019-09-27 14:00:00 18.8 6 Noroeste 13 Noroeste 0 959.4 -0.5 64
2019-09-27 13:00:00 17.5 4 Noroeste 13 Noroeste 0 959.6 0.2 67
2019-09-27 12:00:00 15.8 4 Oeste 8 Oeste 0 959.8 0.5 69
2019-09-27 11:00:00 14.4 3 Noroeste 12 Noroeste 0 959.9 0.8 78
2019-09-27 10:00:00 12.9 4 Noroeste 8 Noroeste 0 959.4 0.5 83
2019-09-27 09:00:00 11.5 0 Calma 6 Sudeste 0 959.3 0.4 86
2019-09-27 08:00:00 11 0 Calma 5 Noroeste 0 959.1 0.1 86
2019-09-27 07:00:00 10.8 3 Sur 11 Sudeste 0 958.9 -0.5 86
2019-09-27 06:00:00 10.5 0 Calma 6 Norte 0 958.9 -0.7 88
2019-09-27 05:00:00 10.9 3 Sur 7 Sur 0 959 -0.8 88
2019-09-27 04:00:00 11.8 0 Calma 8 Norte 0 959.4 0 85
2019-09-27 03:00:00 12.4 6 Sudeste 9 Sudeste 0 959.6 0.2 83
2019-09-27 02:00:00 13.5 3 Sudeste 7 Sudeste 0 959.8 0.9 77
2019-09-27 01:00:00 14.6 4 Nordeste 11 Noroeste 0 959.4 1.2 77
2019-09-27 00:00:00 16.2 6 Oeste 14 Noroeste 0 959.4 1.8 70
2019-09-26 23:00:00 17.1 7 Noroeste 13 Noroeste 0 958.9 1.7 62
2019-09-26 22:00:00 16.8 0 Calma 6 Oeste 0 958.2 1.6 57
2019-09-26 21:00:00 20.3 3 Oeste 14 Oeste 0 957.6 1.2 46
2019-09-26 20:00:00 22.7 8 Oeste 23 Oeste 0 957.2 0.6 39
2019-09-26 19:00:00 25.4 10 Oeste 24 Sudoeste 0 956.6 -0.4 30
2019-09-26 18:00:00 26.4 13 Sudoeste 22 Sudoeste 0 956.4 -1.1 27
2019-09-26 17:00:00 26 9 Oeste 19 Oeste 0 956.6 -1.7 26
2019-09-26 16:00:00 24.3 6 Noroeste 19 Oeste 0 957 -2.1 35
2019-09-26 15:00:00 22.1 6 Oeste 16 Noroeste 0 957.5 -1.8 43
2019-09-26 14:00:00 20 5 Oeste 13 Noroeste 0 958.3 -1.2 53
2019-09-26 13:00:00 17.3 7 Noroeste 13 Noroeste 0 959.1 -0.1 62
2019-09-26 12:00:00 15.5 4 Oeste 9 Noroeste 0 959.3 0.4 70
2019-09-26 11:00:00 13.7 3 Sudoeste 7 Sudoeste 0 959.5 1 77
2019-09-26 10:00:00 10.1 3 Sur 5 Sudoeste 0 959.2 0.7 92
2019-09-26 09:00:00 9.3 0 Calma 4 Oeste 0 958.9 0.5 94
2019-09-26 08:00:00 8.9 0 Calma 4 Este 0 958.5 0 93
2019-09-26 07:00:00 9.5 0 Calma 3 Norte 0 958.5 -0.1 91
2019-09-26 06:00:00 10.1 0 Calma 3 Noroeste 0 958.4 -0.4 90
2019-09-26 05:00:00 10.7 0 Calma 7 Norte 0 958.5 -0.3 88
2019-09-26 04:00:00 11.3 0 Calma 6 Sur 0 958.6 -0.3 86
2019-09-26 03:00:00 11.6 2 Sudeste 8 Sudeste 0 958.8 0.1 86
2019-09-26 02:00:00 12 2 Sudeste 5 Norte 0 958.8 0.4 85
2019-09-26 01:00:00 12.9 2 Norte 5 Sudeste 0 958.9 0.8 82
2019-09-26 00:00:00 13.5 3 Sudeste 4 Sudeste 0 958.7 0.9 80
2019-09-25 23:00:00 14.3 2 Sudeste 5 Sudoeste 0 958.4 1.1 75
2019-09-25 22:00:00 15.6 3 Oeste 8 Sudoeste 0 958.1 0.9 70
2019-09-25 21:00:00 16.9 4 Noroeste 18 Noroeste 0 957.8 0.8 63
2019-09-25 20:00:00 18.5 12 Noroeste 22 Noroeste 0 957.3 0.2 56
2019-09-25 19:00:00 20.6 12 Oeste 22 Noroeste 0 957.2 -0.4 51
2019-09-25 18:00:00 21.2 9 Noroeste 24 Noroeste 0 957 -1 48
2019-09-25 17:00:00 21.1 9 Oeste 19 Noroeste 0 957.1 -1.6 48
2019-09-25 16:00:00 21.1 10 Oeste 20 Oeste 0 957.6 -1.4 48
2019-09-25 15:00:00 20 10 Oeste 19 Oeste 0 958 -1.2 48
2019-09-25 14:00:00 19.1 8 Oeste 18 Oeste 0 958.7 -0.3 52
2019-09-25 13:00:00 18.5 8 Oeste 17 Oeste 0 959 0.5 54
2019-09-25 12:00:00 17.5 10 Oeste 19 Oeste 0 959.2 0.8 56
2019-09-25 11:00:00 15.2 4 Oeste 13 Noroeste 0 959 1 68
2019-09-25 10:00:00 13.9 5 Oeste 13 Noroeste 0 958.5 0.6 73
2019-09-25 09:00:00 13.3 4 Noroeste 15 Oeste 0 958.4 0.5 76
2019-09-25 08:00:00 13.3 7 Noroeste 14 Noroeste 0 958 0.2 80
2019-09-25 07:00:00 13.3 4 Noroeste 14 Oeste 0 957.9 -0.3 80
2019-09-25 06:00:00 13.5 10 Oeste 16 Noroeste 0 957.9 -0.3 77
2019-09-25 05:00:00 13.8 6 Noroeste 15 Noroeste 0 957.8 -0.3 74
2019-09-25 04:00:00 14 4 Oeste 13 Oeste 0 958.2 -0.1 72
2019-09-25 03:00:00 13.9 5 Oeste 11 Noroeste 0 958.2 0.1 72
2019-09-25 02:00:00 14.1 4 Oeste 13 Noroeste 0 958.1 0.2 70
2019-09-25 01:00:00 14.3 7 Oeste 14 Oeste 0 958.3 0.7 67
2019-09-25 00:00:00 14.6 6 Noroeste 13 Noroeste 0 958.1 1.4 64
2019-09-24 23:00:00 15.7 9 Oeste 16 Noroeste 0 957.9 1.7 59
2019-09-24 22:00:00 16.2 6 Oeste 18 Noroeste 0 957.6 1.9 56
2019-09-24 21:00:00 17.3 9 Noroeste 27 Noroeste 0 956.7 1.4 54
2019-09-24 20:00:00 18.7 12 Noroeste 33 Noroeste 0 956.2 0.7 53
2019-09-24 19:00:00 20.9 14 Oeste 31 Noroeste 0 955.7 0.2 48
2019-09-24 18:00:00 22 15 Noroeste 33 Noroeste 0 955.3 0 44
2019-09-24 17:00:00 21.9 17 Oeste 35 Noroeste 0 955.5 -0.1 46
2019-09-24 16:00:00 20.8 15 Oeste 35 Oeste 0 955.5 -0.3 53
2019-09-24 15:00:00 21.4 17 Oeste 31 Oeste 0 955.3 -0.6 51
2019-09-24 14:00:00 21.8 9 Sudoeste 23 Sudoeste 0 955.6 -0.2 62
2019-09-24 13:00:00 20.9 8 Oeste 21 Oeste 0 955.8 0.5 70
2019-09-24 12:00:00 18 2 Sudoeste 9 Sudeste 0 955.9 0.7 81
2019-09-24 11:00:00 16.5 2 Norte 5 Norte 0.4 955.8 0.7 87
2019-09-24 10:00:00 15.9 2 Nordeste 8 Este 0 955.3 0.2 90
2019-09-24 09:00:00 15.2 4 Este 9 Sudeste 0 955.2 0.4 91
2019-09-24 08:00:00 15.3 4 Sur 9 Sur 0 955.1 0.5 86
2019-09-24 07:00:00 15.2 2 Sudeste 9 Sur 0 955.1 -0.3 83
2019-09-24 06:00:00 15 3 Sudoeste 8 Sur 0 954.8 -1.3 83
2019-09-24 05:00:00 14.7 3 Sur 9 Noroeste 0 954.6 -1.2 83
2019-09-24 04:00:00 14.5 5 Noroeste 10 Sudeste 0 955.4 -1 84
2019-09-24 03:00:00 14 5 Sudeste 13 Sur 0 956.1 -0.7 85
2019-09-24 02:00:00 14.8 4 Sur 8 Sudeste 0 955.8 -1.2 80
2019-09-24 01:00:00 15.6 6 Sudeste 9 Sur 0 956.4 -0.9 78
2019-09-24 00:00:00 15.5 3 Sudeste 5 Sudeste 0 956.8 -0.4 80
2019-09-23 23:00:00 16.4 3 Este 8 Oeste 0 957 -0.1 76
2019-09-23 22:00:00 17.5 0 Calma 8 Norte 0 957.3 0 68
2019-09-23 21:00:00 17.9 3 Norte 15 Este 0 957.2 -0.2 66
2019-09-23 20:00:00 18.2 9 Este 17 Sudeste 0 957.1 -0.3 60
2019-09-23 19:00:00 18.4 9 Este 17 Este 0 957.3 0 58
2019-09-23 18:00:00 18.9 4 Este 13 Este 0 957.4 -0.2 60
2019-09-23 17:00:00 19.4 4 Nordeste 8 Nordeste 0 957.4 -0.5 54
2019-09-23 16:00:00 19.3 3 Noroeste 9 Nordeste 0 957.3 -1.1 53
2019-09-23 15:00:00 18.9 4 Este 13 Noroeste 0 957.6 -0.8 54
2019-09-23 14:00:00 18.5 5 Noroeste 13 Oeste 0 957.9 -1.1 53
2019-09-23 13:00:00 17.5 6 Oeste 13 Noroeste 0 958.4 -0.2 58
2019-09-23 12:00:00 15.9 5 Noroeste 10 Norte 0 958.4 0.3 71
2019-09-23 11:00:00 13.4 3 Sudeste 8 Oeste 0 959 1.3 79
2019-09-23 10:00:00 11.7 3 Sudeste 8 Oeste 0 958.6 1 86
2019-09-23 09:00:00 10.8 3 Oeste 6 Oeste 0 958.1 0.5 89
2019-09-23 08:00:00 11 3 Oeste 9 Sur 0 957.7 0 88
2019-09-23 07:00:00 10.7 4 Sudeste 6 Sudeste 0 957.6 0.4 88
2019-09-23 06:00:00 10.5 2 Sudeste 5 Noroeste 0 957.6 0.4 89
2019-09-23 05:00:00 11 0 Calma 8 Noroeste 0 957.7 1 87
2019-09-23 04:00:00 11.6 3 Sudeste 8 Sur 0 957.2 0.2 86
2019-09-23 03:00:00 11.6 3 Este 4 Sudeste 0 957.2 0.5 85
2019-09-23 02:00:00 12.5 2 Este 5 Sudeste 0 956.7 0.5 82
2019-09-23 01:00:00 13.5 3 Este 7 Nordeste 0 957 1.4 77
2019-09-23 00:00:00 14.3 3 Norte 7 Norte 0 956.7 1.7 73
2019-09-22 23:00:00 14.7 0 Calma 7 Oeste 0 956.2 2.1 71
2019-09-22 22:00:00 16.1 3 Oeste 10 Sudoeste 0 955.6 1.7 62
2019-09-22 21:00:00 17.6 5 Oeste 12 Sudoeste 0 955 1.6 55
2019-09-22 20:00:00 19.5 5 Oeste 22 Sudoeste 0 954.1 0.9 46
2019-09-22 19:00:00 20.9 10 Oeste 22 Oeste 0 953.9 0.6 40
2019-09-22 18:00:00 20.8 11 Noroeste 25 Noroeste 0 953.4 0 43
2019-09-22 17:00:00 21.4 9 Oeste 22 Oeste 0 953.2 -0.4 40
2019-09-22 16:00:00 20.8 11 Oeste 25 Oeste 0 953.3 -0.3 41
2019-09-22 15:00:00 20.2 12 Oeste 24 Noroeste 0 953.4 -0.2 44
2019-09-22 14:00:00 18.7 10 Oeste 22 Sudoeste 0 953.6 0.2 50
2019-09-22 13:00:00 18.1 11 Sudoeste 21 Oeste 0 953.6 0.8 54
2019-09-22 12:00:00 16.5 10 Oeste 18 Oeste 0 953.6 1.6 61
2019-09-22 11:00:00 14.8 6 Oeste 10 Oeste 0 953.4 2.2 74
2019-09-22 10:00:00 12.6 0 Calma 5 Sudeste 0 952.8 2.5 97
2019-09-22 09:00:00 11.4 0 Calma 4 Este 0 952 2.3 96
2019-09-22 08:00:00 11.9 0 Calma 8 Norte 0 951.2 1.4 94
2019-09-22 07:00:00 12.5 4 Noroeste 8 Norte 0 950.3 1.1 94
2019-09-22 06:00:00 12.6 4 Sur 9 Noroeste 0.2 949.7 0.7 94
2019-09-22 05:00:00 13 3 Sudoeste 10 Oeste 0.8 949.8 0.9 93
2019-09-22 04:00:00 13 0 Calma 5 Sudeste 0 949.2 0.3 95
2019-09-22 03:00:00 12.8 0 Calma 5 Nordeste 0 949 0.4 94
2019-09-22 02:00:00 12.3 2 Sudeste 5 Este 0 948.9 0.5 95
2019-09-22 01:00:00 12 3 Sudeste 5 Este 0 948.9 1.8 94
2019-09-22 00:00:00 13.1 4 Sudeste 12 Sudeste 0.2 948.6 3.2 89